LF2556 weather

Base ULM de Fontaine les Clerval
Bourgogne-Franche-Comté, France

Public forecast

Using degrees Celsius for public forecast. Weather courtesy of forecast.io.

Closest aviation weather report (METAR) to Base ULM de Fontaine les Clerval

Closest report is Luxeuil-Saint-Sauveur (BA 116) Air Base, 22.1 nm (40.9 km) N. Retrieved 2020/08/05 16:30 UTC (0 seconds ago):

LFSX 051630Z AUTO 17004KT 100V270 CAVOK 27/09 Q1016

Closest aviation forecast (TAF) to Base ULM de Fontaine les Clerval

Closest forecast is Luxeuil-Saint-Sauveur (BA 116) Air Base, 22.1 nm (40.9 km) N. Retrieved 2020/08/05 15:00 UTC (1 hour ago):

TAF LFSX 051400Z 0515/0615 16005KT CAVOK BECMG 0600/0602 VRB02KT BECMG 0607/0609 20005KT BECMG 0613/0615 15005G15KT